sensor_id;sensor_type;location;lat;lon;timestamp;P1;durP1;ratioP1;P2;durP2;ratioP2
26702;SDS011;14316;51.074;3.704;2023-02-15T00:01:32;102.07;;;70.93;;
26702;SDS011;14316;51.074;3.704;2023-02-15T00:03:58;106.90;;;72.30;;
26702;SDS011;14316;51.074;3.704;2023-02-15T00:06:24;102.40;;;69.60;;
26702;SDS011;14316;51.074;3.704;2023-02-15T00:08:51;106.05;;;70.05;;
26702;SDS011;14316;51.074;3.704;2023-02-15T00:11:17;101.97;;;69.07;;
26702;SDS011;14316;51.074;3.704;2023-02-15T00:14:07;100.00;;;69.97;;
26702;SDS011;14316;51.074;3.704;2023-02-15T00:16:33;97.72;;;67.75;;
26702;SDS011;14316;51.074;3.704;2023-02-15T00:18:59;96.38;;;64.82;;
26702;SDS011;14316;51.074;3.704;2023-02-15T00:21:27;106.10;;;69.70;;
26702;SDS011;14316;51.074;3.704;2023-02-15T00:23:54;100.75;;;67.70;;
26702;SDS011;14316;51.074;3.704;2023-02-15T00:26:21;102.22;;;69.75;;
26702;SDS011;14316;51.074;3.704;2023-02-15T00:28:47;107.97;;;71.90;;
26702;SDS011;14316;51.074;3.704;2023-02-15T00:31:13;106.35;;;71.65;;
26702;SDS011;14316;51.074;3.704;2023-02-15T00:33:39;104.18;;;72.38;;
26702;SDS011;14316;51.074;3.704;2023-02-15T00:36:06;114.63;;;73.95;;
26702;SDS011;14316;51.074;3.704;2023-02-15T00:38:33;111.88;;;74.20;;
26702;SDS011;14316;51.074;3.704;2023-02-15T00:41:00;116.47;;;75.95;;
26702;SDS011;14316;51.074;3.704;2023-02-15T00:43:29;112.85;;;76.07;;
26702;SDS011;14316;51.074;3.704;2023-02-15T00:45:56;110.63;;;73.95;;
26702;SDS011;14316;51.074;3.704;2023-02-15T00:48:22;107.75;;;71.28;;
26702;SDS011;14316;51.074;3.704;2023-02-15T00:50:48;106.57;;;73.40;;
26702;SDS011;14316;51.074;3.704;2023-02-15T00:53:16;105.00;;;70.95;;
26702;SDS011;14316;51.074;3.704;2023-02-15T00:55:42;110.63;;;74.85;;
26702;SDS011;14316;51.074;3.704;2023-02-15T00:58:09;114.13;;;74.38;;
26702;SDS011;14316;51.074;3.704;2023-02-15T01:00:39;114.82;;;72.90;;
26702;SDS011;14316;51.074;3.704;2023-02-15T01:03:09;114.37;;;74.17;;
26702;SDS011;14316;51.074;3.704;2023-02-15T01:05:36;109.80;;;74.50;;
26702;SDS011;14316;51.074;3.704;2023-02-15T01:08:02;109.13;;;71.30;;
26702;SDS011;14316;51.074;3.704;2023-02-15T01:10:28;113.97;;;75.03;;
26702;SDS011;14316;51.074;3.704;2023-02-15T01:12:54;111.53;;;73.13;;
26702;SDS011;14316;51.074;3.704;2023-02-15T01:15:21;109.60;;;73.95;;
26702;SDS011;14316;51.074;3.704;2023-02-15T01:17:46;111.38;;;74.50;;
26702;SDS011;14316;51.074;3.704;2023-02-15T01:20:18;113.32;;;74.82;;
26702;SDS011;14316;51.074;3.704;2023-02-15T01:22:45;115.82;;;76.38;;
26702;SDS011;14316;51.074;3.704;2023-02-15T01:25:10;122.30;;;77.43;;
26702;SDS011;14316;51.074;3.704;2023-02-15T01:27:36;115.90;;;76.90;;
26702;SDS011;14316;51.074;3.704;2023-02-15T01:30:02;115.57;;;76.85;;
26702;SDS011;14316;51.074;3.704;2023-02-15T01:32:29;117.60;;;78.68;;
26702;SDS011;14316;51.074;3.704;2023-02-15T01:34:55;113.72;;;74.95;;
26702;SDS011;14316;51.074;3.704;2023-02-15T01:37:21;117.18;;;78.13;;
26702;SDS011;14316;51.074;3.704;2023-02-15T01:39:47;102.38;;;70.20;;
26702;SDS011;14316;51.074;3.704;2023-02-15T01:42:12;109.45;;;75.22;;
26702;SDS011;14316;51.074;3.704;2023-02-15T01:47:47;115.93;;;73.43;;
26702;SDS011;14316;51.074;3.704;2023-02-15T01:50:28;108.93;;;73.88;;
26702;SDS011;14316;51.074;3.704;2023-02-15T01:53:07;107.38;;;72.90;;
26702;SDS011;14316;51.074;3.704;2023-02-15T01:55:39;111.13;;;73.90;;
26702;SDS011;14316;51.074;3.704;2023-02-15T01:58:10;109.97;;;76.15;;
26702;SDS011;14316;51.074;3.704;2023-02-15T02:00:37;111.95;;;75.82;;
26702;SDS011;14316;51.074;3.704;2023-02-15T02:03:02;115.25;;;78.40;;
26702;SDS011;14316;51.074;3.704;2023-02-15T02:05:29;120.03;;;79.53;;
26702;SDS011;14316;51.074;3.704;2023-02-15T02:07:56;121.22;;;81.78;;
26702;SDS011;14316;51.074;3.704;2023-02-15T02:10:26;123.47;;;82.13;;
26702;SDS011;14316;51.074;3.704;2023-02-15T02:12:53;120.93;;;80.95;;
26702;SDS011;14316;51.074;3.704;2023-02-15T02:15:23;112.47;;;74.43;;
26702;SDS011;14316;51.074;3.704;2023-02-15T02:21:37;116.55;;;74.20;;
26702;SDS011;14316;51.074;3.704;2023-02-15T02:42:35;148.63;;;92.03;;
26702;SDS011;14316;51.074;3.704;2023-02-15T02:45:21;127.28;;;82.45;;
26702;SDS011;14316;51.074;3.704;2023-02-15T02:47:57;134.43;;;83.72;;
26702;SDS011;14316;51.074;3.704;2023-02-15T02:50:29;134.52;;;87.57;;
26702;SDS011;14316;51.074;3.704;2023-02-15T02:52:56;135.48;;;89.43;;
26702;SDS011;14316;51.074;3.704;2023-02-15T02:57:58;138.02;;;88.43;;
26702;SDS011;14316;51.074;3.704;2023-02-15T03:00:34;144.15;;;89.57;;
26702;SDS011;14316;51.074;3.704;2023-02-15T03:03:11;139.45;;;89.85;;
26702;SDS011;14316;51.074;3.704;2023-02-15T03:05:42;141.00;;;89.13;;
26702;SDS011;14316;51.074;3.704;2023-02-15T03:08:11;141.38;;;89.88;;
26702;SDS011;14316;51.074;3.704;2023-02-15T03:10:39;139.38;;;89.32;;
26702;SDS011;14316;51.074;3.704;2023-02-15T03:13:06;148.48;;;90.47;;
26702;SDS011;14316;51.074;3.704;2023-02-15T03:15:35;147.15;;;91.88;;
26702;SDS011;14316;51.074;3.704;2023-02-15T03:18:22;143.38;;;89.93;;
26702;SDS011;14316;51.074;3.704;2023-02-15T03:20:55;139.05;;;89.90;;
26702;SDS011;14316;51.074;3.704;2023-02-15T03:23:23;140.77;;;89.85;;
26702;SDS011;14316;51.074;3.704;2023-02-15T03:25:58;140.02;;;89.38;;
26702;SDS011;14316;51.074;3.704;2023-02-15T03:28:36;145.15;;;90.95;;
26702;SDS011;14316;51.074;3.704;2023-02-15T03:31:07;144.32;;;90.68;;
26702;SDS011;14316;51.074;3.704;2023-02-15T03:33:35;140.30;;;89.28;;
26702;SDS011;14316;51.074;3.704;2023-02-15T03:36:06;142.45;;;90.65;;
26702;SDS011;14316;51.074;3.704;2023-02-15T03:41:32;146.18;;;91.15;;
26702;SDS011;14316;51.074;3.704;2023-02-15T03:44:11;138.82;;;90.63;;
26702;SDS011;14316;51.074;3.704;2023-02-15T03:49:14;143.13;;;87.55;;
26702;SDS011;14316;51.074;3.704;2023-02-15T03:51:47;146.88;;;89.18;;
26702;SDS011;14316;51.074;3.704;2023-02-15T03:54:20;149.82;;;92.55;;
26702;SDS011;14316;51.074;3.704;2023-02-15T03:57:07;138.32;;;86.85;;
26702;SDS011;14316;51.074;3.704;2023-02-15T04:05:56;141.23;;;88.75;;
26702;SDS011;14316;51.074;3.704;2023-02-15T04:08:21;146.23;;;91.25;;
26702;SDS011;14316;51.074;3.704;2023-02-15T04:11:07;148.40;;;90.63;;
26702;SDS011;14316;51.074;3.704;2023-02-15T04:13:33;146.52;;;89.43;;
26702;SDS011;14316;51.074;3.704;2023-02-15T04:15:58;158.43;;;92.55;;
26702;SDS011;14316;51.074;3.704;2023-02-15T04:18:31;143.20;;;89.40;;
26702;SDS011;14316;51.074;3.704;2023-02-15T04:21:17;147.18;;;89.72;;
26702;SDS011;14316;51.074;3.704;2023-02-15T04:24:03;147.23;;;87.95;;
26702;SDS011;14316;51.074;3.704;2023-02-15T04:26:48;147.35;;;91.15;;
26702;SDS011;14316;51.074;3.704;2023-02-15T04:29:17;148.02;;;87.13;;
26702;SDS011;14316;51.074;3.704;2023-02-15T04:31:44;154.57;;;88.32;;
26702;SDS011;14316;51.074;3.704;2023-02-15T04:34:10;145.07;;;89.93;;
26702;SDS011;14316;51.074;3.704;2023-02-15T04:36:36;151.65;;;91.78;;
26702;SDS011;14316;51.074;3.704;2023-02-15T04:39:03;143.00;;;88.93;;
26702;SDS011;14316;51.074;3.704;2023-02-15T04:41:29;141.70;;;89.20;;
26702;SDS011;14316;51.074;3.704;2023-02-15T04:43:55;140.90;;;87.32;;
26702;SDS011;14316;51.074;3.704;2023-02-15T04:46:21;146.23;;;86.45;;
26702;SDS011;14316;51.074;3.704;2023-02-15T04:48:47;139.40;;;88.22;;
26702;SDS011;14316;51.074;3.704;2023-02-15T04:51:13;143.85;;;88.45;;
26702;SDS011;14316;51.074;3.704;2023-02-15T04:53:39;140.80;;;89.22;;
26702;SDS011;14316;51.074;3.704;2023-02-15T04:56:05;135.27;;;83.75;;
26702;SDS011;14316;51.074;3.704;2023-02-15T04:58:31;140.95;;;84.65;;
26702;SDS011;14316;51.074;3.704;2023-02-15T05:00:56;128.80;;;84.07;;
26702;SDS011;14316;51.074;3.704;2023-02-15T05:03:23;159.35;;;99.25;;
26702;SDS011;14316;51.074;3.704;2023-02-15T05:05:50;137.85;;;84.78;;
26702;SDS011;14316;51.074;3.704;2023-02-15T05:08:16;133.88;;;85.05;;
26702;SDS011;14316;51.074;3.704;2023-02-15T05:10:41;132.73;;;84.18;;
26702;SDS011;14316;51.074;3.704;2023-02-15T05:13:08;142.30;;;85.28;;
26702;SDS011;14316;51.074;3.704;2023-02-15T05:15:33;131.10;;;83.57;;
26702;SDS011;14316;51.074;3.704;2023-02-15T05:17:59;136.60;;;82.90;;
26702;SDS011;14316;51.074;3.704;2023-02-15T05:20:26;132.80;;;85.25;;
26702;SDS011;14316;51.074;3.704;2023-02-15T05:22:55;131.80;;;79.43;;
26702;SDS011;14316;51.074;3.704;2023-02-15T05:25:21;136.40;;;82.78;;
26702;SDS011;14316;51.074;3.704;2023-02-15T05:28:08;133.57;;;83.15;;
26702;SDS011;14316;51.074;3.704;2023-02-15T05:30:58;132.00;;;82.25;;
26702;SDS011;14316;51.074;3.704;2023-02-15T05:33:36;129.75;;;81.43;;
26702;SDS011;14316;51.074;3.704;2023-02-15T05:36:03;138.05;;;81.40;;
26702;SDS011;14316;51.074;3.704;2023-02-15T05:38:29;133.63;;;81.82;;
26702;SDS011;14316;51.074;3.704;2023-02-15T05:40:56;135.80;;;83.30;;
26702;SDS011;14316;51.074;3.704;2023-02-15T05:43:21;141.00;;;81.45;;
26702;SDS011;14316;51.074;3.704;2023-02-15T05:45:48;133.02;;;82.15;;
26702;SDS011;14316;51.074;3.704;2023-02-15T05:48:16;136.40;;;83.00;;
26702;SDS011;14316;51.074;3.704;2023-02-15T05:50:43;146.95;;;84.35;;
26702;SDS011;14316;51.074;3.704;2023-02-15T05:53:09;137.40;;;84.03;;
26702;SDS011;14316;51.074;3.704;2023-02-15T05:55:39;131.25;;;79.30;;
26702;SDS011;14316;51.074;3.704;2023-02-15T05:58:05;139.48;;;84.70;;
26702;SDS011;14316;51.074;3.704;2023-02-15T06:00:32;137.57;;;82.65;;
26702;SDS011;14316;51.074;3.704;2023-02-15T06:02:58;142.60;;;83.80;;
26702;SDS011;14316;51.074;3.704;2023-02-15T06:05:24;137.07;;;81.70;;
26702;SDS011;14316;51.074;3.704;2023-02-15T06:07:50;135.90;;;82.13;;
26702;SDS011;14316;51.074;3.704;2023-02-15T06:10:16;132.65;;;81.55;;
26702;SDS011;14316;51.074;3.704;2023-02-15T06:12:43;137.88;;;82.28;;
26702;SDS011;14316;51.074;3.704;2023-02-15T06:15:09;125.68;;;79.40;;
26702;SDS011;14316;51.074;3.704;2023-02-15T06:17:35;135.70;;;80.75;;
26702;SDS011;14316;51.074;3.704;2023-02-15T06:20:00;130.15;;;79.65;;
26702;SDS011;14316;51.074;3.704;2023-02-15T06:22:26;130.32;;;78.10;;
26702;SDS011;14316;51.074;3.704;2023-02-15T06:24:52;126.78;;;77.43;;
26702;SDS011;14316;51.074;3.704;2023-02-15T06:27:18;133.52;;;81.18;;
26702;SDS011;14316;51.074;3.704;2023-02-15T06:29:44;131.73;;;80.28;;
26702;SDS011;14316;51.074;3.704;2023-02-15T06:32:09;124.80;;;79.40;;
26702;SDS011;14316;51.074;3.704;2023-02-15T06:34:35;137.43;;;82.25;;
26702;SDS011;14316;51.074;3.704;2023-02-15T06:37:01;138.43;;;83.90;;
26702;SDS011;14316;51.074;3.704;2023-02-15T06:39:27;125.65;;;77.22;;
26702;SDS011;14316;51.074;3.704;2023-02-15T06:41:53;138.20;;;82.40;;
26702;SDS011;14316;51.074;3.704;2023-02-15T06:44:19;140.30;;;84.35;;
26702;SDS011;14316;51.074;3.704;2023-02-15T06:46:45;134.43;;;81.30;;
26702;SDS011;14316;51.074;3.704;2023-02-15T06:49:11;132.63;;;80.50;;
26702;SDS011;14316;51.074;3.704;2023-02-15T06:51:38;126.70;;;78.32;;
26702;SDS011;14316;51.074;3.704;2023-02-15T06:54:04;129.30;;;79.75;;
26702;SDS011;14316;51.074;3.704;2023-02-15T06:56:30;125.43;;;79.80;;
26702;SDS011;14316;51.074;3.704;2023-02-15T06:58:56;125.07;;;79.07;;
26702;SDS011;14316;51.074;3.704;2023-02-15T07:01:22;129.13;;;78.05;;
26702;SDS011;14316;51.074;3.704;2023-02-15T07:03:49;113.65;;;74.18;;
26702;SDS011;14316;51.074;3.704;2023-02-15T07:06:14;118.00;;;75.03;;
26702;SDS011;14316;51.074;3.704;2023-02-15T07:08:40;122.43;;;76.75;;
26702;SDS011;14316;51.074;3.704;2023-02-15T07:11:06;130.27;;;79.10;;
26702;SDS011;14316;51.074;3.704;2023-02-15T07:13:51;117.75;;;76.03;;
26702;SDS011;14316;51.074;3.704;2023-02-15T07:16:20;122.85;;;76.97;;
26702;SDS011;14316;51.074;3.704;2023-02-15T07:18:46;128.48;;;79.53;;
26702;SDS011;14316;51.074;3.704;2023-02-15T07:21:12;136.70;;;83.53;;
26702;SDS011;14316;51.074;3.704;2023-02-15T07:23:38;129.98;;;81.43;;
26702;SDS011;14316;51.074;3.704;2023-02-15T07:26:05;122.18;;;80.13;;
26702;SDS011;14316;51.074;3.704;2023-02-15T07:28:32;122.88;;;83.97;;
26702;SDS011;14316;51.074;3.704;2023-02-15T07:31:00;129.27;;;82.38;;
26702;SDS011;14316;51.074;3.704;2023-02-15T07:33:27;145.63;;;86.22;;
26702;SDS011;14316;51.074;3.704;2023-02-15T07:35:58;130.45;;;80.82;;
26702;SDS011;14316;51.074;3.704;2023-02-15T07:38:27;127.78;;;82.28;;
26702;SDS011;14316;51.074;3.704;2023-02-15T07:40:58;137.02;;;88.72;;
26702;SDS011;14316;51.074;3.704;2023-02-15T07:43:24;123.47;;;78.15;;
26702;SDS011;14316;51.074;3.704;2023-02-15T07:45:50;119.45;;;76.20;;
26702;SDS011;14316;51.074;3.704;2023-02-15T07:48:16;124.60;;;79.80;;
26702;SDS011;14316;51.074;3.704;2023-02-15T07:50:42;115.53;;;75.93;;
26702;SDS011;14316;51.074;3.704;2023-02-15T07:53:08;101.95;;;63.92;;
26702;SDS011;14316;51.074;3.704;2023-02-15T07:55:34;96.72;;;65.57;;
26702;SDS011;14316;51.074;3.704;2023-02-15T07:58:01;97.78;;;63.83;;
26702;SDS011;14316;51.074;3.704;2023-02-15T08:00:27;92.63;;;58.90;;
26702;SDS011;14316;51.074;3.704;2023-02-15T08:02:55;90.50;;;59.58;;
26702;SDS011;14316;51.074;3.704;2023-02-15T08:05:39;91.85;;;61.65;;
26702;SDS011;14316;51.074;3.704;2023-02-15T08:08:07;86.90;;;54.85;;
26702;SDS011;14316;51.074;3.704;2023-02-15T08:10:34;89.40;;;57.13;;
26702;SDS011;14316;51.074;3.704;2023-02-15T08:13:19;78.47;;;52.35;;
26702;SDS011;14316;51.074;3.704;2023-02-15T08:15:50;74.43;;;50.20;;
26702;SDS011;14316;51.074;3.704;2023-02-15T08:18:17;70.25;;;48.95;;
26702;SDS011;14316;51.074;3.704;2023-02-15T08:20:42;69.57;;;47.35;;
26702;SDS011;14316;51.074;3.704;2023-02-15T08:25:40;72.30;;;46.80;;
26702;SDS011;14316;51.074;3.704;2023-02-15T08:28:06;70.68;;;44.92;;
26702;SDS011;14316;51.074;3.704;2023-02-15T08:30:32;65.57;;;43.80;;
26702;SDS011;14316;51.074;3.704;2023-02-15T08:32:57;66.63;;;46.00;;
26702;SDS011;14316;51.074;3.704;2023-02-15T08:35:24;68.20;;;45.53;;
26702;SDS011;14316;51.074;3.704;2023-02-15T08:37:49;65.97;;;44.97;;
26702;SDS011;14316;51.074;3.704;2023-02-15T08:40:16;62.78;;;42.28;;
26702;SDS011;14316;51.074;3.704;2023-02-15T08:42:42;65.13;;;43.65;;
26702;SDS011;14316;51.074;3.704;2023-02-15T08:45:08;68.43;;;43.08;;
26702;SDS011;14316;51.074;3.704;2023-02-15T08:47:34;64.05;;;41.35;;
26702;SDS011;14316;51.074;3.704;2023-02-15T08:50:00;61.80;;;41.10;;
26702;SDS011;14316;51.074;3.704;2023-02-15T08:52:25;64.93;;;41.95;;
26702;SDS011;14316;51.074;3.704;2023-02-15T08:54:52;63.17;;;40.72;;
26702;SDS011;14316;51.074;3.704;2023-02-15T08:57:18;57.28;;;39.78;;
26702;SDS011;14316;51.074;3.704;2023-02-15T08:59:44;61.53;;;38.53;;
26702;SDS011;14316;51.074;3.704;2023-02-15T09:02:09;59.72;;;35.75;;
26702;SDS011;14316;51.074;3.704;2023-02-15T09:04:35;59.33;;;37.95;;
26702;SDS011;14316;51.074;3.704;2023-02-15T09:07:01;63.42;;;39.30;;
26702;SDS011;14316;51.074;3.704;2023-02-15T09:09:29;60.55;;;38.53;;
26702;SDS011;14316;51.074;3.704;2023-02-15T09:11:56;61.90;;;39.55;;
26702;SDS011;14316;51.074;3.704;2023-02-15T09:14:21;57.35;;;35.08;;
26702;SDS011;14316;51.074;3.704;2023-02-15T09:16:49;58.85;;;38.85;;
26702;SDS011;14316;51.074;3.704;2023-02-15T09:19:17;61.72;;;40.53;;
26702;SDS011;14316;51.074;3.704;2023-02-15T09:21:44;57.28;;;36.17;;
26702;SDS011;14316;51.074;3.704;2023-02-15T09:24:10;60.38;;;38.53;;
26702;SDS011;14316;51.074;3.704;2023-02-15T09:26:39;60.85;;;37.80;;
26702;SDS011;14316;51.074;3.704;2023-02-15T09:29:07;56.80;;;37.55;;
26702;SDS011;14316;51.074;3.704;2023-02-15T09:31:37;54.05;;;36.28;;
26702;SDS011;14316;51.074;3.704;2023-02-15T09:34:09;56.38;;;37.20;;
26702;SDS011;14316;51.074;3.704;2023-02-15T09:36:37;55.72;;;34.90;;
26702;SDS011;14316;51.074;3.704;2023-02-15T09:39:06;59.83;;;37.20;;
26702;SDS011;14316;51.074;3.704;2023-02-15T09:44:15;58.75;;;37.00;;
26702;SDS011;14316;51.074;3.704;2023-02-15T09:46:54;54.85;;;38.00;;
26702;SDS011;14316;51.074;3.704;2023-02-15T09:49:51;56.90;;;36.75;;
26702;SDS011;14316;51.074;3.704;2023-02-15T10:20:43;59.22;;;35.70;;
26702;SDS011;14316;51.074;3.704;2023-02-15T10:23:43;45.00;;;28.60;;
26702;SDS011;14316;51.074;3.704;2023-02-15T10:26:20;53.17;;;36.13;;
26702;SDS011;14316;51.074;3.704;2023-02-15T10:34:05;57.70;;;36.27;;
26702;SDS011;14316;51.074;3.704;2023-02-15T10:44:49;52.30;;;35.10;;
26702;SDS011;14316;51.074;3.704;2023-02-15T10:47:34;51.33;;;35.03;;
26702;SDS011;14316;51.074;3.704;2023-02-15T10:50:30;51.28;;;35.17;;
26702;SDS011;14316;51.074;3.704;2023-02-15T10:59:37;47.00;;;30.75;;
26702;SDS011;14316;51.074;3.704;2023-02-15T11:07:46;51.17;;;34.83;;
26702;SDS011;14316;51.074;3.704;2023-02-15T11:12:58;57.08;;;37.20;;
26702;SDS011;14316;51.074;3.704;2023-02-15T11:18:21;52.95;;;37.75;;
26702;SDS011;14316;51.074;3.704;2023-02-15T11:23:47;49.85;;;36.55;;
26702;SDS011;14316;51.074;3.704;2023-02-15T11:31:48;49.30;;;37.58;;
26702;SDS011;14316;51.074;3.704;2023-02-15T11:34:31;55.72;;;37.83;;
26702;SDS011;14316;51.074;3.704;2023-02-15T11:37:01;51.65;;;36.10;;
26702;SDS011;14316;51.074;3.704;2023-02-15T11:39:40;48.42;;;36.80;;
26702;SDS011;14316;51.074;3.704;2023-02-15T11:42:16;47.88;;;36.03;;
26702;SDS011;14316;51.074;3.704;2023-02-15T11:44:57;48.75;;;36.63;;
26702;SDS011;14316;51.074;3.704;2023-02-15T11:47:25;45.15;;;32.13;;
26702;SDS011;14316;51.074;3.704;2023-02-15T11:49:56;49.83;;;35.35;;
26702;SDS011;14316;51.074;3.704;2023-02-15T11:52:24;52.15;;;36.75;;
26702;SDS011;14316;51.074;3.704;2023-02-15T11:54:51;56.20;;;38.55;;
26702;SDS011;14316;51.074;3.704;2023-02-15T11:59:58;52.42;;;37.17;;
26702;SDS011;14316;51.074;3.704;2023-02-15T12:02:30;50.25;;;36.53;;
26702;SDS011;14316;51.074;3.704;2023-02-15T12:04:59;51.30;;;36.40;;
26702;SDS011;14316;51.074;3.704;2023-02-15T12:07:36;51.08;;;37.05;;
26702;SDS011;14316;51.074;3.704;2023-02-15T12:10:22;46.70;;;36.25;;
26702;SDS011;14316;51.074;3.704;2023-02-15T12:15:37;45.42;;;36.38;;
26702;SDS011;14316;51.074;3.704;2023-02-15T12:21:03;47.25;;;35.88;;
26702;SDS011;14316;51.074;3.704;2023-02-15T12:23:39;46.90;;;36.28;;
26702;SDS011;14316;51.074;3.704;2023-02-15T12:26:13;50.97;;;36.97;;
26702;SDS011;14316;51.074;3.704;2023-02-15T12:28:40;56.08;;;41.63;;
26702;SDS011;14316;51.074;3.704;2023-02-15T12:33:50;52.60;;;38.15;;
26702;SDS011;14316;51.074;3.704;2023-02-15T12:36:24;47.95;;;36.92;;
26702;SDS011;14316;51.074;3.704;2023-02-15T12:42:00;53.28;;;37.28;;
26702;SDS011;14316;51.074;3.704;2023-02-15T12:44:29;48.67;;;34.65;;
26702;SDS011;14316;51.074;3.704;2023-02-15T12:47:17;49.42;;;32.97;;
26702;SDS011;14316;51.074;3.704;2023-02-15T12:49:44;46.80;;;33.72;;
26702;SDS011;14316;51.074;3.704;2023-02-15T12:52:49;46.65;;;34.90;;
26702;SDS011;14316;51.074;3.704;2023-02-15T12:55:23;51.85;;;35.72;;
26702;SDS011;14316;51.074;3.704;2023-02-15T12:58:38;44.13;;;30.42;;
26702;SDS011;14316;51.074;3.704;2023-02-15T13:00:43;51.38;;;35.72;;
26702;SDS011;14316;51.074;3.704;2023-02-15T13:03:19;49.13;;;36.17;;
26702;SDS011;14316;51.074;3.704;2023-02-15T13:05:48;49.35;;;36.53;;
26702;SDS011;14316;51.074;3.704;2023-02-15T13:08:17;49.60;;;37.50;;
26702;SDS011;14316;51.074;3.704;2023-02-15T13:14:13;48.63;;;35.78;;
26702;SDS011;14316;51.074;3.704;2023-02-15T13:16:19;48.50;;;35.92;;
26702;SDS011;14316;51.074;3.704;2023-02-15T13:19:10;46.63;;;35.05;;
26702;SDS011;14316;51.074;3.704;2023-02-15T13:21:49;47.88;;;34.92;;
26702;SDS011;14316;51.074;3.704;2023-02-15T13:24:18;48.95;;;34.90;;
26702;SDS011;14316;51.074;3.704;2023-02-15T13:26:48;48.43;;;37.30;;
26702;SDS011;14316;51.074;3.704;2023-02-15T13:29:27;45.58;;;35.08;;
26702;SDS011;14316;51.074;3.704;2023-02-15T13:31:57;45.85;;;35.47;;
26702;SDS011;14316;51.074;3.704;2023-02-15T13:34:25;45.47;;;36.78;;
26702;SDS011;14316;51.074;3.704;2023-02-15T13:42:12;42.40;;;33.92;;
26702;SDS011;14316;51.074;3.704;2023-02-15T13:50:06;43.92;;;34.65;;
26702;SDS011;14316;51.074;3.704;2023-02-15T13:52:58;42.75;;;33.22;;
26702;SDS011;14316;51.074;3.704;2023-02-15T13:56:02;42.80;;;34.45;;
26702;SDS011;14316;51.074;3.704;2023-02-15T14:09:05;44.35;;;34.28;;
26702;SDS011;14316;51.074;3.704;2023-02-15T14:17:18;47.45;;;34.05;;
26702;SDS011;14316;51.074;3.704;2023-02-15T14:31:46;51.25;;;37.25;;
26702;SDS011;14316;51.074;3.704;2023-02-15T14:34:27;49.50;;;36.85;;
26702;SDS011;14316;51.074;3.704;2023-02-15T14:37:00;48.47;;;38.33;;
26702;SDS011;14316;51.074;3.704;2023-02-15T14:39:31;45.63;;;35.38;;
26702;SDS011;14316;51.074;3.704;2023-02-15T14:45:55;45.45;;;33.47;;
26702;SDS011;14316;51.074;3.704;2023-02-15T14:48:26;47.88;;;36.95;;
26702;SDS011;14316;51.074;3.704;2023-02-15T14:50:57;47.50;;;35.22;;
26702;SDS011;14316;51.074;3.704;2023-02-15T14:58:41;48.20;;;35.25;;
26702;SDS011;14316;51.074;3.704;2023-02-15T15:01:25;47.63;;;37.25;;
26702;SDS011;14316;51.074;3.704;2023-02-15T15:03:59;46.42;;;35.70;;
26702;SDS011;14316;51.074;3.704;2023-02-15T15:06:35;49.13;;;36.97;;
26702;SDS011;14316;51.074;3.704;2023-02-15T15:11:51;54.13;;;39.22;;
26702;SDS011;14316;51.074;3.704;2023-02-15T15:16:56;54.90;;;40.60;;
26702;SDS011;14316;51.074;3.704;2023-02-15T15:20:36;54.47;;;40.42;;
26702;SDS011;14316;51.074;3.704;2023-02-15T15:24:55;56.53;;;39.90;;
26702;SDS011;14316;51.074;3.704;2023-02-15T15:27:56;56.95;;;41.42;;
26702;SDS011;14316;51.074;3.704;2023-02-15T15:35:17;52.08;;;39.65;;
26702;SDS011;14316;51.074;3.704;2023-02-15T15:49:15;54.05;;;36.83;;
26702;SDS011;14316;51.074;3.704;2023-02-15T15:51:47;53.85;;;38.20;;
26702;SDS011;14316;51.074;3.704;2023-02-15T15:54:18;54.08;;;36.97;;
26702;SDS011;14316;51.074;3.704;2023-02-15T15:56:52;54.85;;;37.60;;
26702;SDS011;14316;51.074;3.704;2023-02-15T15:59:24;52.60;;;37.40;;
26702;SDS011;14316;51.074;3.704;2023-02-15T16:01:51;52.80;;;37.80;;
26702;SDS011;14316;51.074;3.704;2023-02-15T16:04:27;56.42;;;41.15;;
26702;SDS011;14316;51.074;3.704;2023-02-15T16:06:55;57.13;;;38.80;;
26702;SDS011;14316;51.074;3.704;2023-02-15T16:09:23;52.85;;;39.00;;
26702;SDS011;14316;51.074;3.704;2023-02-15T16:11:51;59.08;;;40.55;;
26702;SDS011;14316;51.074;3.704;2023-02-15T16:14:37;57.40;;;41.03;;
26702;SDS011;14316;51.074;3.704;2023-02-15T16:17:05;58.13;;;40.65;;
26702;SDS011;14316;51.074;3.704;2023-02-15T16:19:37;51.72;;;37.65;;
26702;SDS011;14316;51.074;3.704;2023-02-15T16:22:13;52.45;;;39.50;;
26702;SDS011;14316;51.074;3.704;2023-02-15T16:27:48;59.35;;;39.92;;
26702;SDS011;14316;51.074;3.704;2023-02-15T16:33:12;63.33;;;43.13;;
26702;SDS011;14316;51.074;3.704;2023-02-15T16:35:42;53.85;;;39.47;;
26702;SDS011;14316;51.074;3.704;2023-02-15T16:41:09;57.33;;;40.88;;
26702;SDS011;14316;51.074;3.704;2023-02-15T16:43:38;58.13;;;41.28;;
26702;SDS011;14316;51.074;3.704;2023-02-15T16:46:10;52.95;;;40.50;;
26702;SDS011;14316;51.074;3.704;2023-02-15T16:48:39;53.75;;;38.35;;
26702;SDS011;14316;51.074;3.704;2023-02-15T16:51:09;51.88;;;34.17;;
26702;SDS011;14316;51.074;3.704;2023-02-15T16:53:35;52.10;;;36.63;;
26702;SDS011;14316;51.074;3.704;2023-02-15T16:56:02;59.60;;;37.05;;
26702;SDS011;14316;51.074;3.704;2023-02-15T16:58:31;58.45;;;38.28;;
26702;SDS011;14316;51.074;3.704;2023-02-15T17:01:11;54.35;;;39.35;;
26702;SDS011;14316;51.074;3.704;2023-02-15T17:03:40;59.38;;;40.58;;
26702;SDS011;14316;51.074;3.704;2023-02-15T17:06:40;60.45;;;41.25;;
26702;SDS011;14316;51.074;3.704;2023-02-15T17:09:05;60.30;;;41.22;;
26702;SDS011;14316;51.074;3.704;2023-02-15T17:11:42;61.42;;;43.17;;
26702;SDS011;14316;51.074;3.704;2023-02-15T17:16:36;60.25;;;40.03;;
26702;SDS011;14316;51.074;3.704;2023-02-15T17:19:48;57.45;;;41.47;;
26702;SDS011;14316;51.074;3.704;2023-02-15T17:22:22;63.00;;;42.70;;
26702;SDS011;14316;51.074;3.704;2023-02-15T17:24:50;60.05;;;41.83;;
26702;SDS011;14316;51.074;3.704;2023-02-15T17:27:25;53.72;;;38.92;;
26702;SDS011;14316;51.074;3.704;2023-02-15T17:29:57;54.00;;;37.53;;
26702;SDS011;14316;51.074;3.704;2023-02-15T17:32:26;64.88;;;42.03;;
26702;SDS011;14316;51.074;3.704;2023-02-15T17:34:58;57.08;;;39.92;;
26702;SDS011;14316;51.074;3.704;2023-02-15T17:39:56;55.88;;;38.97;;
26702;SDS011;14316;51.074;3.704;2023-02-15T17:42:22;56.90;;;39.95;;
26702;SDS011;14316;51.074;3.704;2023-02-15T17:44:49;58.13;;;39.70;;
26702;SDS011;14316;51.074;3.704;2023-02-15T17:47:22;58.20;;;40.53;;
26702;SDS011;14316;51.074;3.704;2023-02-15T17:49:51;56.83;;;37.55;;
26702;SDS011;14316;51.074;3.704;2023-02-15T17:52:18;56.78;;;37.55;;
26702;SDS011;14316;51.074;3.704;2023-02-15T17:54:45;58.00;;;39.92;;
26702;SDS011;14316;51.074;3.704;2023-02-15T17:57:29;61.30;;;41.35;;
26702;SDS011;14316;51.074;3.704;2023-02-15T17:59:58;59.40;;;40.00;;
26702;SDS011;14316;51.074;3.704;2023-02-15T18:02:42;61.15;;;41.15;;
26702;SDS011;14316;51.074;3.704;2023-02-15T18:05:30;61.60;;;38.65;;
26702;SDS011;14316;51.074;3.704;2023-02-15T18:08:15;58.08;;;40.80;;
26702;SDS011;14316;51.074;3.704;2023-02-15T18:11:01;61.80;;;42.72;;
26702;SDS011;14316;51.074;3.704;2023-02-15T18:13:46;62.33;;;39.70;;